sensor_id;sensor_type;location;lat;lon;timestamp;temperature;humidity
37518;DHT22;23366;52.498;13.446;2022-09-24T00:01:47;12.30;99.90
37518;DHT22;23366;52.498;13.446;2022-09-24T00:04:13;12.30;99.90
37518;DHT22;23366;52.498;13.446;2022-09-24T00:06:44;12.30;99.90
37518;DHT22;23366;52.498;13.446;2022-09-24T00:09:11;12.20;99.90
37518;DHT22;23366;52.498;13.446;2022-09-24T00:11:37;12.30;99.90
37518;DHT22;23366;52.498;13.446;2022-09-24T00:14:03;12.30;99.90
37518;DHT22;23366;52.498;13.446;2022-09-24T00:16:31;12.20;99.90
37518;DHT22;23366;52.498;13.446;2022-09-24T00:18:59;12.20;99.90
37518;DHT22;23366;52.498;13.446;2022-09-24T00:21:28;12.10;99.90
37518;DHT22;23366;52.498;13.446;2022-09-24T00:23:57;12.10;99.90
37518;DHT22;23366;52.498;13.446;2022-09-24T00:26:23;12.10;99.90
37518;DHT22;23366;52.498;13.446;2022-09-24T00:29:09;12.10;99.90
37518;DHT22;23366;52.498;13.446;2022-09-24T00:31:35;12.10;99.90
37518;DHT22;23366;52.498;13.446;2022-09-24T00:34:01;12.10;99.90
37518;DHT22;23366;52.498;13.446;2022-09-24T00:36:27;12.10;99.90
37518;DHT22;23366;52.498;13.446;2022-09-24T00:38:54;12.10;99.90
37518;DHT22;23366;52.498;13.446;2022-09-24T00:41:23;12.10;99.90
37518;DHT22;23366;52.498;13.446;2022-09-24T00:43:49;12.10;99.90
37518;DHT22;23366;52.498;13.446;2022-09-24T00:46:23;12.10;99.90
37518;DHT22;23366;52.498;13.446;2022-09-24T00:48:52;12.10;99.90
37518;DHT22;23366;52.498;13.446;2022-09-24T00:51:20;12.00;99.90
37518;DHT22;23366;52.498;13.446;2022-09-24T00:53:50;12.00;99.90
37518;DHT22;23366;52.498;13.446;2022-09-24T00:56:16;12.00;99.90
37518;DHT22;23366;52.498;13.446;2022-09-24T00:58:46;12.00;99.90
37518;DHT22;23366;52.498;13.446;2022-09-24T01:01:15;12.00;99.90
37518;DHT22;23366;52.498;13.446;2022-09-24T01:03:41;12.00;99.90
37518;DHT22;23366;52.498;13.446;2022-09-24T01:06:08;12.00;99.90
37518;DHT22;23366;52.498;13.446;2022-09-24T01:08:33;11.90;99.90
37518;DHT22;23366;52.498;13.446;2022-09-24T01:11:19;11.90;99.90
37518;DHT22;23366;52.498;13.446;2022-09-24T01:14:08;11.90;99.90
37518;DHT22;23366;52.498;13.446;2022-09-24T01:19:34;11.90;99.90
37518;DHT22;23366;52.498;13.446;2022-09-24T01:24:59;11.90;99.90
37518;DHT22;23366;52.498;13.446;2022-09-24T01:27:43;11.90;99.90
37518;DHT22;23366;52.498;13.446;2022-09-24T01:30:12;11.80;99.90
37518;DHT22;23366;52.498;13.446;2022-09-24T01:32:47;11.80;99.90
37518;DHT22;23366;52.498;13.446;2022-09-24T01:35:33;11.80;99.90
37518;DHT22;23366;52.498;13.446;2022-09-24T01:38:07;11.80;99.90
37518;DHT22;23366;52.498;13.446;2022-09-24T01:40:34;11.80;99.90
37518;DHT22;23366;52.498;13.446;2022-09-24T01:43:02;11.80;99.90
37518;DHT22;23366;52.498;13.446;2022-09-24T01:45:30;11.80;99.90
37518;DHT22;23366;52.498;13.446;2022-09-24T01:47:58;11.80;99.90
37518;DHT22;23366;52.498;13.446;2022-09-24T01:50:27;11.80;99.90
37518;DHT22;23366;52.498;13.446;2022-09-24T01:53:01;11.80;99.90
37518;DHT22;23366;52.498;13.446;2022-09-24T01:55:34;11.90;99.90
37518;DHT22;23366;52.498;13.446;2022-09-24T01:58:07;11.80;99.90
37518;DHT22;23366;52.498;13.446;2022-09-24T02:00:37;11.80;99.90
37518;DHT22;23366;52.498;13.446;2022-09-24T02:03:16;11.80;99.90
37518;DHT22;23366;52.498;13.446;2022-09-24T02:05:54;11.80;99.90
37518;DHT22;23366;52.498;13.446;2022-09-24T02:08:25;11.90;99.90
37518;DHT22;23366;52.498;13.446;2022-09-24T02:11:21;11.90;99.90
37518;DHT22;23366;52.498;13.446;2022-09-24T02:13:50;11.90;99.90
37518;DHT22;23366;52.498;13.446;2022-09-24T02:16:23;11.90;99.90
37518;DHT22;23366;52.498;13.446;2022-09-24T02:18:51;11.80;99.90
37518;DHT22;23366;52.498;13.446;2022-09-24T02:21:19;11.90;99.90
37518;DHT22;23366;52.498;13.446;2022-09-24T02:24:06;11.90;99.90
37518;DHT22;23366;52.498;13.446;2022-09-24T02:26:32;11.90;99.90
37518;DHT22;23366;52.498;13.446;2022-09-24T02:28:58;11.90;99.90
37518;DHT22;23366;52.498;13.446;2022-09-24T02:31:31;11.80;99.90
37518;DHT22;23366;52.498;13.446;2022-09-24T02:34:03;11.80;99.90
37518;DHT22;23366;52.498;13.446;2022-09-24T02:37:03;11.80;99.90
37518;DHT22;23366;52.498;13.446;2022-09-24T02:39:29;11.80;99.90
37518;DHT22;23366;52.498;13.446;2022-09-24T02:41:55;11.80;99.90
37518;DHT22;23366;52.498;13.446;2022-09-24T02:44:21;11.80;99.90
37518;DHT22;23366;52.498;13.446;2022-09-24T02:46:47;11.80;99.90
37518;DHT22;23366;52.498;13.446;2022-09-24T02:49:13;11.80;99.90
37518;DHT22;23366;52.498;13.446;2022-09-24T02:51:40;11.80;99.90
37518;DHT22;23366;52.498;13.446;2022-09-24T02:54:06;11.80;99.90
37518;DHT22;23366;52.498;13.446;2022-09-24T02:56:32;11.80;99.90
37518;DHT22;23366;52.498;13.446;2022-09-24T02:58:58;11.80;99.90
37518;DHT22;23366;52.498;13.446;2022-09-24T03:01:27;11.90;99.90
37518;DHT22;23366;52.498;13.446;2022-09-24T03:03:53;11.90;99.90
37518;DHT22;23366;52.498;13.446;2022-09-24T03:06:18;11.90;99.90
37518;DHT22;23366;52.498;13.446;2022-09-24T03:08:44;11.90;99.90
37518;DHT22;23366;52.498;13.446;2022-09-24T03:11:10;11.90;99.90
37518;DHT22;23366;52.498;13.446;2022-09-24T03:13:37;11.90;99.90
37518;DHT22;23366;52.498;13.446;2022-09-24T03:16:03;11.90;99.90
37518;DHT22;23366;52.498;13.446;2022-09-24T03:18:29;11.90;99.90
37518;DHT22;23366;52.498;13.446;2022-09-24T03:21:04;11.90;99.90
37518;DHT22;23366;52.498;13.446;2022-09-24T03:23:31;11.90;99.90
37518;DHT22;23366;52.498;13.446;2022-09-24T03:25:56;11.90;99.90
37518;DHT22;23366;52.498;13.446;2022-09-24T03:28:22;11.90;99.90
37518;DHT22;23366;52.498;13.446;2022-09-24T03:30:48;11.80;99.90
37518;DHT22;23366;52.498;13.446;2022-09-24T03:38:22;11.80;99.90
37518;DHT22;23366;52.498;13.446;2022-09-24T03:40:48;11.80;99.90
37518;DHT22;23366;52.498;13.446;2022-09-24T03:43:14;11.80;99.90
37518;DHT22;23366;52.498;13.446;2022-09-24T03:45:39;11.80;99.90
37518;DHT22;23366;52.498;13.446;2022-09-24T03:48:05;11.80;99.90
37518;DHT22;23366;52.498;13.446;2022-09-24T03:50:31;11.80;99.90
37518;DHT22;23366;52.498;13.446;2022-09-24T03:52:59;11.80;99.90
37518;DHT22;23366;52.498;13.446;2022-09-24T03:55:25;11.80;99.90
37518;DHT22;23366;52.498;13.446;2022-09-24T03:57:50;11.80;99.90
37518;DHT22;23366;52.498;13.446;2022-09-24T04:00:16;11.70;99.90
37518;DHT22;23366;52.498;13.446;2022-09-24T04:02:41;11.60;99.90
37518;DHT22;23366;52.498;13.446;2022-09-24T04:05:07;11.60;99.90
37518;DHT22;23366;52.498;13.446;2022-09-24T04:07:33;11.50;99.90
37518;DHT22;23366;52.498;13.446;2022-09-24T04:09:59;11.60;99.90
37518;DHT22;23366;52.498;13.446;2022-09-24T04:12:24;11.50;99.90
37518;DHT22;23366;52.498;13.446;2022-09-24T04:14:50;11.60;99.90
37518;DHT22;23366;52.498;13.446;2022-09-24T04:17:15;11.50;99.90
37518;DHT22;23366;52.498;13.446;2022-09-24T04:19:41;11.50;99.90
37518;DHT22;23366;52.498;13.446;2022-09-24T04:22:07;11.60;99.90
37518;DHT22;23366;52.498;13.446;2022-09-24T04:24:33;11.60;99.90
37518;DHT22;23366;52.498;13.446;2022-09-24T04:26:58;11.60;99.90
37518;DHT22;23366;52.498;13.446;2022-09-24T04:29:24;11.60;99.90
37518;DHT22;23366;52.498;13.446;2022-09-24T04:31:49;11.60;99.90
37518;DHT22;23366;52.498;13.446;2022-09-24T04:34:15;11.60;99.90
37518;DHT22;23366;52.498;13.446;2022-09-24T04:36:42;11.60;99.90
37518;DHT22;23366;52.498;13.446;2022-09-24T04:39:09;11.70;99.90
37518;DHT22;23366;52.498;13.446;2022-09-24T04:41:37;11.60;99.90
37518;DHT22;23366;52.498;13.446;2022-09-24T04:44:04;11.60;99.90
37518;DHT22;23366;52.498;13.446;2022-09-24T04:46:30;11.60;99.90
37518;DHT22;23366;52.498;13.446;2022-09-24T04:48:58;11.60;99.90
37518;DHT22;23366;52.498;13.446;2022-09-24T04:51:24;11.60;99.90
37518;DHT22;23366;52.498;13.446;2022-09-24T04:53:49;11.60;99.90
37518;DHT22;23366;52.498;13.446;2022-09-24T04:56:15;11.60;99.90
37518;DHT22;23366;52.498;13.446;2022-09-24T04:58:41;11.60;99.90
37518;DHT22;23366;52.498;13.446;2022-09-24T05:01:07;11.60;99.90
37518;DHT22;23366;52.498;13.446;2022-09-24T05:03:32;11.60;99.90
37518;DHT22;23366;52.498;13.446;2022-09-24T05:05:58;11.60;99.90
37518;DHT22;23366;52.498;13.446;2022-09-24T05:08:24;11.70;99.90
37518;DHT22;23366;52.498;13.446;2022-09-24T05:10:49;11.70;99.90
37518;DHT22;23366;52.498;13.446;2022-09-24T05:13:17;11.60;99.90
37518;DHT22;23366;52.498;13.446;2022-09-24T05:15:43;11.70;99.90
37518;DHT22;23366;52.498;13.446;2022-09-24T05:18:08;11.70;99.90
37518;DHT22;23366;52.498;13.446;2022-09-24T05:20:34;11.70;99.90
37518;DHT22;23366;52.498;13.446;2022-09-24T05:22:59;11.60;99.90
37518;DHT22;23366;52.498;13.446;2022-09-24T05:25:25;11.60;99.90
37518;DHT22;23366;52.498;13.446;2022-09-24T05:27:53;11.70;99.90
37518;DHT22;23366;52.498;13.446;2022-09-24T05:30:21;11.70;99.90
37518;DHT22;23366;52.498;13.446;2022-09-24T05:32:47;11.70;99.90
37518;DHT22;23366;52.498;13.446;2022-09-24T05:35:17;11.80;99.90
37518;DHT22;23366;52.498;13.446;2022-09-24T05:37:43;11.80;99.90
37518;DHT22;23366;52.498;13.446;2022-09-24T05:40:10;11.80;99.90
37518;DHT22;23366;52.498;13.446;2022-09-24T05:42:59;11.80;99.90
37518;DHT22;23366;52.498;13.446;2022-09-24T05:45:25;11.70;99.90
37518;DHT22;23366;52.498;13.446;2022-09-24T05:47:51;11.80;99.90
37518;DHT22;23366;52.498;13.446;2022-09-24T05:50:17;11.90;99.90
37518;DHT22;23366;52.498;13.446;2022-09-24T05:52:42;11.90;99.90
37518;DHT22;23366;52.498;13.446;2022-09-24T05:55:09;12.10;99.90
37518;DHT22;23366;52.498;13.446;2022-09-24T05:57:35;12.40;99.90
37518;DHT22;23366;52.498;13.446;2022-09-24T06:00:01;12.40;99.90
37518;DHT22;23366;52.498;13.446;2022-09-24T06:02:26;12.50;99.90
37518;DHT22;23366;52.498;13.446;2022-09-24T06:04:52;12.50;99.90
37518;DHT22;23366;52.498;13.446;2022-09-24T06:07:19;12.50;99.90
37518;DHT22;23366;52.498;13.446;2022-09-24T06:09:44;12.50;99.90
37518;DHT22;23366;52.498;13.446;2022-09-24T06:12:12;12.40;99.90
37518;DHT22;23366;52.498;13.446;2022-09-24T06:14:38;12.40;99.90
37518;DHT22;23366;52.498;13.446;2022-09-24T06:17:05;12.40;99.90
37518;DHT22;23366;52.498;13.446;2022-09-24T06:19:31;12.40;99.90
37518;DHT22;23366;52.498;13.446;2022-09-24T06:21:57;12.40;99.90
37518;DHT22;23366;52.498;13.446;2022-09-24T06:24:22;12.30;99.90
37518;DHT22;23366;52.498;13.446;2022-09-24T06:26:50;12.40;99.90
37518;DHT22;23366;52.498;13.446;2022-09-24T06:29:16;12.30;99.90
37518;DHT22;23366;52.498;13.446;2022-09-24T06:31:42;12.30;99.90
37518;DHT22;23366;52.498;13.446;2022-09-24T06:34:08;12.30;99.90
37518;DHT22;23366;52.498;13.446;2022-09-24T06:36:33;12.30;99.90
37518;DHT22;23366;52.498;13.446;2022-09-24T06:39:00;12.30;99.90
37518;DHT22;23366;52.498;13.446;2022-09-24T06:41:25;12.30;99.90
37518;DHT22;23366;52.498;13.446;2022-09-24T06:43:53;12.40;99.90
37518;DHT22;23366;52.498;13.446;2022-09-24T06:46:18;12.50;99.90
37518;DHT22;23366;52.498;13.446;2022-09-24T06:48:44;12.50;99.90
37518;DHT22;23366;52.498;13.446;2022-09-24T06:51:12;12.60;99.90
37518;DHT22;23366;52.498;13.446;2022-09-24T06:53:37;12.70;99.90
37518;DHT22;23366;52.498;13.446;2022-09-24T06:56:03;12.70;99.90
37518;DHT22;23366;52.498;13.446;2022-09-24T06:58:29;12.70;99.90
37518;DHT22;23366;52.498;13.446;2022-09-24T07:00:57;12.80;99.90
37518;DHT22;23366;52.498;13.446;2022-09-24T07:03:23;12.80;99.90
37518;DHT22;23366;52.498;13.446;2022-09-24T07:05:49;12.90;99.90
37518;DHT22;23366;52.498;13.446;2022-09-24T07:08:16;12.90;99.90
37518;DHT22;23366;52.498;13.446;2022-09-24T07:10:45;12.90;99.90
37518;DHT22;23366;52.498;13.446;2022-09-24T07:13:14;12.80;99.90
37518;DHT22;23366;52.498;13.446;2022-09-24T07:15:41;12.80;99.90
37518;DHT22;23366;52.498;13.446;2022-09-24T07:18:07;12.80;99.90
37518;DHT22;23366;52.498;13.446;2022-09-24T07:20:32;12.80;99.90
37518;DHT22;23366;52.498;13.446;2022-09-24T07:22:58;12.80;99.90
37518;DHT22;23366;52.498;13.446;2022-09-24T07:25:24;12.70;99.90
37518;DHT22;23366;52.498;13.446;2022-09-24T07:27:50;12.80;99.90
37518;DHT22;23366;52.498;13.446;2022-09-24T07:30:18;12.80;99.90
37518;DHT22;23366;52.498;13.446;2022-09-24T07:32:44;12.90;99.90
37518;DHT22;23366;52.498;13.446;2022-09-24T07:35:09;13.00;99.90
37518;DHT22;23366;52.498;13.446;2022-09-24T07:37:35;13.10;99.90
37518;DHT22;23366;52.498;13.446;2022-09-24T07:40:00;13.20;99.90
37518;DHT22;23366;52.498;13.446;2022-09-24T07:42:27;13.40;99.90
37518;DHT22;23366;52.498;13.446;2022-09-24T07:44:54;13.50;99.90
37518;DHT22;23366;52.498;13.446;2022-09-24T07:47:21;13.60;99.90
37518;DHT22;23366;52.498;13.446;2022-09-24T07:49:47;13.70;99.90
37518;DHT22;23366;52.498;13.446;2022-09-24T07:52:12;13.70;99.90
37518;DHT22;23366;52.498;13.446;2022-09-24T07:54:38;13.80;99.90
37518;DHT22;23366;52.498;13.446;2022-09-24T07:57:09;13.90;99.90
37518;DHT22;23366;52.498;13.446;2022-09-24T07:59:37;14.00;99.90
37518;DHT22;23366;52.498;13.446;2022-09-24T08:02:02;14.10;99.90
37518;DHT22;23366;52.498;13.446;2022-09-24T08:04:28;14.20;99.90
37518;DHT22;23366;52.498;13.446;2022-09-24T08:06:54;14.30;99.90
37518;DHT22;23366;52.498;13.446;2022-09-24T08:09:24;14.40;99.90
37518;DHT22;23366;52.498;13.446;2022-09-24T08:11:49;14.50;99.90
37518;DHT22;23366;52.498;13.446;2022-09-24T08:14:15;14.50;99.90
37518;DHT22;23366;52.498;13.446;2022-09-24T08:16:40;14.60;99.90
37518;DHT22;23366;52.498;13.446;2022-09-24T08:19:06;14.70;99.90
37518;DHT22;23366;52.498;13.446;2022-09-24T08:21:38;14.80;99.90
37518;DHT22;23366;52.498;13.446;2022-09-24T08:24:03;14.80;99.90
37518;DHT22;23366;52.498;13.446;2022-09-24T08:26:29;14.80;99.90
37518;DHT22;23366;52.498;13.446;2022-09-24T08:28:54;14.80;99.90
37518;DHT22;23366;52.498;13.446;2022-09-24T08:31:20;14.90;99.90
37518;DHT22;23366;52.498;13.446;2022-09-24T08:33:46;15.00;99.90
37518;DHT22;23366;52.498;13.446;2022-09-24T08:36:15;15.00;99.90
37518;DHT22;23366;52.498;13.446;2022-09-24T08:38:41;15.10;99.90
37518;DHT22;23366;52.498;13.446;2022-09-24T08:43:46;15.10;99.90
37518;DHT22;23366;52.498;13.446;2022-09-24T08:46:25;15.20;99.90
37518;DHT22;23366;52.498;13.446;2022-09-24T08:49:16;15.30;99.90
37518;DHT22;23366;52.498;13.446;2022-09-24T08:51:53;15.30;99.90
37518;DHT22;23366;52.498;13.446;2022-09-24T08:54:21;15.40;99.90
37518;DHT22;23366;52.498;13.446;2022-09-24T08:56:48;15.50;99.90
37518;DHT22;23366;52.498;13.446;2022-09-24T08:59:31;15.60;99.90
37518;DHT22;23366;52.498;13.446;2022-09-24T09:07:49;15.80;99.90
37518;DHT22;23366;52.498;13.446;2022-09-24T09:10:22;15.80;99.90
37518;DHT22;23366;52.498;13.446;2022-09-24T09:13:00;15.90;99.90
37518;DHT22;23366;52.498;13.446;2022-09-24T09:15:32;15.90;99.90
37518;DHT22;23366;52.498;13.446;2022-09-24T09:20:47;16.00;99.90
37518;DHT22;23366;52.498;13.446;2022-09-24T09:23:20;16.00;99.90
37518;DHT22;23366;52.498;13.446;2022-09-24T09:25:55;16.10;99.90
37518;DHT22;23366;52.498;13.446;2022-09-24T09:28:21;16.30;99.90
37518;DHT22;23366;52.498;13.446;2022-09-24T09:31:13;16.30;99.90
37518;DHT22;23366;52.498;13.446;2022-09-24T09:42:07;16.50;99.90
37518;DHT22;23366;52.498;13.446;2022-09-24T09:44:39;16.60;99.90
37518;DHT22;23366;52.498;13.446;2022-09-24T09:49:44;16.40;99.90
37518;DHT22;23366;52.498;13.446;2022-09-24T09:52:18;16.40;99.90
37518;DHT22;23366;52.498;13.446;2022-09-24T09:54:45;16.30;99.90
37518;DHT22;23366;52.498;13.446;2022-09-24T09:57:15;16.40;99.90
37518;DHT22;23366;52.498;13.446;2022-09-24T09:59:48;16.40;99.90
37518;DHT22;23366;52.498;13.446;2022-09-24T10:02:37;16.50;99.90
37518;DHT22;23366;52.498;13.446;2022-09-24T10:05:17;16.60;99.90
37518;DHT22;23366;52.498;13.446;2022-09-24T10:07:44;16.60;99.90
37518;DHT22;23366;52.498;13.446;2022-09-24T10:10:17;16.70;99.90
37518;DHT22;23366;52.498;13.446;2022-09-24T10:12:43;16.70;99.90
37518;DHT22;23366;52.498;13.446;2022-09-24T10:15:16;16.70;99.90
37518;DHT22;23366;52.498;13.446;2022-09-24T10:17:44;16.60;99.90
37518;DHT22;23366;52.498;13.446;2022-09-24T10:20:28;16.60;99.90
37518;DHT22;23366;52.498;13.446;2022-09-24T10:22:56;16.60;99.90
37518;DHT22;23366;52.498;13.446;2022-09-24T10:25:26;16.60;99.90
37518;DHT22;23366;52.498;13.446;2022-09-24T10:27:54;16.60;99.90
37518;DHT22;23366;52.498;13.446;2022-09-24T10:31:00;16.50;99.90
37518;DHT22;23366;52.498;13.446;2022-09-24T10:33:38;16.50;99.90
37518;DHT22;23366;52.498;13.446;2022-09-24T10:36:26;16.40;99.90
37518;DHT22;23366;52.498;13.446;2022-09-24T10:41:34;16.40;99.90
37518;DHT22;23366;52.498;13.446;2022-09-24T10:44:04;16.50;99.90
37518;DHT22;23366;52.498;13.446;2022-09-24T11:01:31;16.50;99.90
37518;DHT22;23366;52.498;13.446;2022-09-24T11:10:27;16.80;99.90
37518;DHT22;23366;52.498;13.446;2022-09-24T11:21:24;17.10;99.90
37518;DHT22;23366;52.498;13.446;2022-09-24T11:26:49;17.30;99.90
37518;DHT22;23366;52.498;13.446;2022-09-24T11:32:22;17.20;99.90
37518;DHT22;23366;52.498;13.446;2022-09-24T11:35:04;17.40;99.90
37518;DHT22;23366;52.498;13.446;2022-09-24T11:37:41;17.60;99.90
37518;DHT22;23366;52.498;13.446;2022-09-24T11:45:44;18.10;99.90
37518;DHT22;23366;52.498;13.446;2022-09-24T11:48:47;18.20;99.30
37518;DHT22;23366;52.498;13.446;2022-09-24T11:54:33;18.20;99.70
37518;DHT22;23366;52.498;13.446;2022-09-24T11:57:26;18.10;99.90
37518;DHT22;23366;52.498;13.446;2022-09-24T11:59:55;18.00;99.80
37518;DHT22;23366;52.498;13.446;2022-09-24T12:02:39;18.00;99.90
37518;DHT22;23366;52.498;13.446;2022-09-24T12:05:16;18.00;99.90
37518;DHT22;23366;52.498;13.446;2022-09-24T12:07:57;18.00;99.90
37518;DHT22;23366;52.498;13.446;2022-09-24T12:10:36;17.90;99.90
37518;DHT22;23366;52.498;13.446;2022-09-24T12:15:54;17.60;99.90
37518;DHT22;23366;52.498;13.446;2022-09-24T12:18:32;17.40;99.90
37518;DHT22;23366;52.498;13.446;2022-09-24T12:21:06;17.20;99.90
37518;DHT22;23366;52.498;13.446;2022-09-24T12:23:36;17.10;99.90
37518;DHT22;23366;52.498;13.446;2022-09-24T12:26:04;17.00;99.90
37518;DHT22;23366;52.498;13.446;2022-09-24T12:28:41;16.90;99.90
37518;DHT22;23366;52.498;13.446;2022-09-24T12:31:54;16.90;99.90
37518;DHT22;23366;52.498;13.446;2022-09-24T12:35:04;16.80;99.90
37518;DHT22;23366;52.498;13.446;2022-09-24T12:37:36;16.90;99.90
37518;DHT22;23366;52.498;13.446;2022-09-24T12:40:49;16.90;99.90
37518;DHT22;23366;52.498;13.446;2022-09-24T12:43:31;17.00;99.90
37518;DHT22;23366;52.498;13.446;2022-09-24T12:46:01;17.10;99.90
37518;DHT22;23366;52.498;13.446;2022-09-24T12:48:28;17.20;99.90
37518;DHT22;23366;52.498;13.446;2022-09-24T12:50:57;17.40;99.90
37518;DHT22;23366;52.498;13.446;2022-09-24T12:53:31;17.40;99.90
37518;DHT22;23366;52.498;13.446;2022-09-24T12:56:01;17.50;99.90
37518;DHT22;23366;52.498;13.446;2022-09-24T12:58:39;17.50;99.90
37518;DHT22;23366;52.498;13.446;2022-09-24T13:01:25;17.60;99.90
37518;DHT22;23366;52.498;13.446;2022-09-24T13:06:39;17.70;99.90
37518;DHT22;23366;52.498;13.446;2022-09-24T13:09:35;17.70;99.90
37518;DHT22;23366;52.498;13.446;2022-09-24T13:14:40;17.80;99.90
37518;DHT22;23366;52.498;13.446;2022-09-24T13:17:06;17.80;99.90
37518;DHT22;23366;52.498;13.446;2022-09-24T13:19:38;17.80;99.90
37518;DHT22;23366;52.498;13.446;2022-09-24T13:22:05;17.80;99.90
37518;DHT22;23366;52.498;13.446;2022-09-24T13:25:16;17.80;99.90
37518;DHT22;23366;52.498;13.446;2022-09-24T13:27:55;17.70;99.90
37518;DHT22;23366;52.498;13.446;2022-09-24T13:30:36;17.70;99.90
37518;DHT22;23366;52.498;13.446;2022-09-24T13:33:26;17.60;99.90
37518;DHT22;23366;52.498;13.446;2022-09-24T13:38:27;17.60;99.90
37518;DHT22;23366;52.498;13.446;2022-09-24T13:41:24;17.60;99.90
37518;DHT22;23366;52.498;13.446;2022-09-24T13:44:03;17.60;99.90
37518;DHT22;23366;52.498;13.446;2022-09-24T13:46:30;17.70;99.90
37518;DHT22;23366;52.498;13.446;2022-09-24T13:49:03;17.70;99.90
37518;DHT22;23366;52.498;13.446;2022-09-24T13:51:34;17.60;99.90
37518;DHT22;23366;52.498;13.446;2022-09-24T13:54:13;17.60;99.90
37518;DHT22;23366;52.498;13.446;2022-09-24T13:56:54;17.70;99.90
37518;DHT22;23366;52.498;13.446;2022-09-24T13:59:19;17.70;99.90
37518;DHT22;23366;52.498;13.446;2022-09-24T14:01:45;17.80;99.90
37518;DHT22;23366;52.498;13.446;2022-09-24T14:04:21;17.70;99.90
37518;DHT22;23366;52.498;13.446;2022-09-24T14:06:52;17.60;99.90
37518;DHT22;23366;52.498;13.446;2022-09-24T14:09:33;17.40;99.90
37518;DHT22;23366;52.498;13.446;2022-09-24T14:12:11;17.40;99.90
37518;DHT22;23366;52.498;13.446;2022-09-24T14:14:43;17.40;99.90
37518;DHT22;23366;52.498;13.446;2022-09-24T14:17:15;17.50;99.90
37518;DHT22;23366;52.498;13.446;2022-09-24T14:19:41;17.60;99.90
37518;DHT22;23366;52.498;13.446;2022-09-24T14:22:33;17.60;99.90
37518;DHT22;23366;52.498;13.446;2022-09-24T14:25:05;17.60;99.90
37518;DHT22;23366;52.498;13.446;2022-09-24T14:27:36;17.60;99.90
37518;DHT22;23366;52.498;13.446;2022-09-24T14:30:07;17.60;99.90
37518;DHT22;23366;52.498;13.446;2022-09-24T14:32:35;17.60;99.90
37518;DHT22;23366;52.498;13.446;2022-09-24T14:35:31;17.60;99.90
37518;DHT22;23366;52.498;13.446;2022-09-24T14:38:15;17.70;99.90
37518;DHT22;23366;52.498;13.446;2022-09-24T14:40:51;17.50;99.90
37518;DHT22;23366;52.498;13.446;2022-09-24T14:43:23;17.50;99.90
37518;DHT22;23366;52.498;13.446;2022-09-24T14:46:01;17.60;99.90
37518;DHT22;23366;52.498;13.446;2022-09-24T14:48:33;17.60;99.90
37518;DHT22;23366;52.498;13.446;2022-09-24T14:51:00;17.50;99.90
37518;DHT22;23366;52.498;13.446;2022-09-24T14:53:30;17.50;99.90
37518;DHT22;23366;52.498;13.446;2022-09-24T14:55:58;17.40;99.90
37518;DHT22;23366;52.498;13.446;2022-09-24T14:58:33;17.30;99.90
37518;DHT22;23366;52.498;13.446;2022-09-24T15:01:14;17.20;99.90
37518;DHT22;23366;52.498;13.446;2022-09-24T15:03:53;17.10;99.90
37518;DHT22;23366;52.498;13.446;2022-09-24T15:06:29;17.10;99.90
37518;DHT22;23366;52.498;13.446;2022-09-24T15:09:20;17.00;99.90
37518;DHT22;23366;52.498;13.446;2022-09-24T15:11:47;17.00;99.90
37518;DHT22;23366;52.498;13.446;2022-09-24T15:16:43;16.90;99.90
37518;DHT22;23366;52.498;13.446;2022-09-24T15:19:23;16.80;99.90
37518;DHT22;23366;52.498;13.446;2022-09-24T15:21:53;16.80;99.90
37518;DHT22;23366;52.498;13.446;2022-09-24T15:24:20;16.70;99.90
37518;DHT22;23366;52.498;13.446;2022-09-24T15:26:48;16.70;99.90
37518;DHT22;23366;52.498;13.446;2022-09-24T15:29:25;16.60;99.90
37518;DHT22;23366;52.498;13.446;2022-09-24T15:31:52;16.60;99.90
37518;DHT22;23366;52.498;13.446;2022-09-24T15:34:18;16.60;99.90
37518;DHT22;23366;52.498;13.446;2022-09-24T15:36:47;16.50;99.90
37518;DHT22;23366;52.498;13.446;2022-09-24T15:39:15;16.50;99.90
37518;DHT22;23366;52.498;13.446;2022-09-24T15:41:42;16.50;99.90
37518;DHT22;23366;52.498;13.446;2022-09-24T15:44:18;16.50;99.90
37518;DHT22;23366;52.498;13.446;2022-09-24T15:46:44;16.40;99.90
37518;DHT22;23366;52.498;13.446;2022-09-24T15:49:09;16.40;99.90
37518;DHT22;23366;52.498;13.446;2022-09-24T15:51:37;16.40;99.90
37518;DHT22;23366;52.498;13.446;2022-09-24T15:54:13;16.30;99.90
37518;DHT22;23366;52.498;13.446;2022-09-24T15:56:38;16.40;99.90
37518;DHT22;23366;52.498;13.446;2022-09-24T15:59:13;16.30;99.90
37518;DHT22;23366;52.498;13.446;2022-09-24T16:01:39;16.30;99.90
37518;DHT22;23366;52.498;13.446;2022-09-24T16:04:05;16.40;99.90
37518;DHT22;23366;52.498;13.446;2022-09-24T16:06:32;16.30;99.90
37518;DHT22;23366;52.498;13.446;2022-09-24T16:08:57;16.30;99.90
37518;DHT22;23366;52.498;13.446;2022-09-24T16:11:23;16.20;99.90
37518;DHT22;23366;52.498;13.446;2022-09-24T16:13:49;16.20;99.90
37518;DHT22;23366;52.498;13.446;2022-09-24T16:16:15;16.20;99.90
37518;DHT22;23366;52.498;13.446;2022-09-24T16:18:40;16.20;99.90
37518;DHT22;23366;52.498;13.446;2022-09-24T16:21:07;16.20;99.90
37518;DHT22;23366;52.498;13.446;2022-09-24T16:23:32;16.00;99.90
37518;DHT22;23366;52.498;13.446;2022-09-24T16:25:59;15.90;99.90
37518;DHT22;23366;52.498;13.446;2022-09-24T16:28:26;15.90;99.90
37518;DHT22;23366;52.498;13.446;2022-09-24T16:30:52;15.80;99.90
37518;DHT22;23366;52.498;13.446;2022-09-24T16:33:17;15.80;99.90
37518;DHT22;23366;52.498;13.446;2022-09-24T16:35:43;15.80;99.90
37518;DHT22;23366;52.498;13.446;2022-09-24T16:38:08;15.70;99.90
37518;DHT22;23366;52.498;13.446;2022-09-24T16:40:34;15.60;99.90
37518;DHT22;23366;52.498;13.446;2022-09-24T16:43:00;15.50;99.90
37518;DHT22;23366;52.498;13.446;2022-09-24T16:45:25;15.50;99.90
37518;DHT22;23366;52.498;13.446;2022-09-24T16:47:51;15.50;99.90
37518;DHT22;23366;52.498;13.446;2022-09-24T16:50:16;15.40;99.90
37518;DHT22;23366;52.498;13.446;2022-09-24T16:52:44;15.50;99.90
37518;DHT22;23366;52.498;13.446;2022-09-24T16:55:10;15.40;99.90
37518;DHT22;23366;52.498;13.446;2022-09-24T16:57:36;15.40;99.90
37518;DHT22;23366;52.498;13.446;2022-09-24T17:00:04;15.30;99.90
37518;DHT22;23366;52.498;13.446;2022-09-24T17:02:32;15.30;99.90
37518;DHT22;23366;52.498;13.446;2022-09-24T17:04:58;15.30;99.90
37518;DHT22;23366;52.498;13.446;2022-09-24T17:07:23;15.20;99.90
37518;DHT22;23366;52.498;13.446;2022-09-24T17:09:49;15.20;99.90